sensor_id;sensor_type;location;lat;lon;timestamp;P1;durP1;ratioP1;P2;durP2;ratioP2
13493;SDS011;6819;50.886;4.332;2023-09-19T00:00:13;11.77;;;2.88;;
13493;SDS011;6819;50.886;4.332;2023-09-19T00:02:39;7.43;;;2.00;;
13493;SDS011;6819;50.886;4.332;2023-09-19T00:05:05;10.95;;;1.92;;
13493;SDS011;6819;50.886;4.332;2023-09-19T00:07:33;10.98;;;2.75;;
13493;SDS011;6819;50.886;4.332;2023-09-19T00:10:01;10.68;;;2.60;;
13493;SDS011;6819;50.886;4.332;2023-09-19T00:12:27;10.88;;;2.20;;
13493;SDS011;6819;50.886;4.332;2023-09-19T00:14:53;14.55;;;2.15;;
13493;SDS011;6819;50.886;4.332;2023-09-19T00:17:21;12.23;;;2.20;;
13493;SDS011;6819;50.886;4.332;2023-09-19T00:19:47;14.70;;;3.08;;
13493;SDS011;6819;50.886;4.332;2023-09-19T00:22:13;16.83;;;2.38;;
13493;SDS011;6819;50.886;4.332;2023-09-19T00:24:41;11.63;;;2.10;;
13493;SDS011;6819;50.886;4.332;2023-09-19T00:27:07;7.68;;;2.25;;
13493;SDS011;6819;50.886;4.332;2023-09-19T00:29:33;6.75;;;1.80;;
13493;SDS011;6819;50.886;4.332;2023-09-19T00:31:59;11.57;;;2.10;;
13493;SDS011;6819;50.886;4.332;2023-09-19T00:34:28;8.18;;;2.05;;
13493;SDS011;6819;50.886;4.332;2023-09-19T00:36:54;8.15;;;2.33;;
13493;SDS011;6819;50.886;4.332;2023-09-19T00:39:20;8.05;;;2.00;;
13493;SDS011;6819;50.886;4.332;2023-09-19T00:41:47;13.40;;;2.30;;
13493;SDS011;6819;50.886;4.332;2023-09-19T00:44:13;9.70;;;2.65;;
13493;SDS011;6819;50.886;4.332;2023-09-19T00:46:40;11.68;;;2.28;;
13493;SDS011;6819;50.886;4.332;2023-09-19T00:49:07;10.07;;;2.08;;
13493;SDS011;6819;50.886;4.332;2023-09-19T00:51:34;9.85;;;1.95;;
13493;SDS011;6819;50.886;4.332;2023-09-19T00:54:01;11.45;;;2.03;;
13493;SDS011;6819;50.886;4.332;2023-09-19T00:56:29;8.13;;;2.00;;
13493;SDS011;6819;50.886;4.332;2023-09-19T00:58:55;13.00;;;2.63;;
13493;SDS011;6819;50.886;4.332;2023-09-19T01:01:21;16.90;;;2.47;;
13493;SDS011;6819;50.886;4.332;2023-09-19T01:03:47;10.95;;;1.98;;
13493;SDS011;6819;50.886;4.332;2023-09-19T01:06:13;11.73;;;2.20;;
13493;SDS011;6819;50.886;4.332;2023-09-19T01:08:39;11.80;;;2.97;;
13493;SDS011;6819;50.886;4.332;2023-09-19T01:11:28;17.05;;;2.47;;
13493;SDS011;6819;50.886;4.332;2023-09-19T01:13:56;13.65;;;2.17;;
13493;SDS011;6819;50.886;4.332;2023-09-19T01:16:29;6.90;;;1.85;;
13493;SDS011;6819;50.886;4.332;2023-09-19T01:32:01;13.73;;;2.22;;
13493;SDS011;6819;50.886;4.332;2023-09-19T01:37:12;9.05;;;1.90;;
13493;SDS011;6819;50.886;4.332;2023-09-19T01:39:39;12.82;;;2.72;;
13493;SDS011;6819;50.886;4.332;2023-09-19T01:42:09;10.40;;;2.50;;
13493;SDS011;6819;50.886;4.332;2023-09-19T01:47:09;8.60;;;2.35;;
13493;SDS011;6819;50.886;4.332;2023-09-19T01:49:41;13.40;;;1.92;;
13493;SDS011;6819;50.886;4.332;2023-09-19T01:52:11;8.95;;;2.63;;
13493;SDS011;6819;50.886;4.332;2023-09-19T01:54:51;13.90;;;2.63;;
13493;SDS011;6819;50.886;4.332;2023-09-19T01:57:20;7.25;;;2.08;;
13493;SDS011;6819;50.886;4.332;2023-09-19T01:59:49;11.13;;;2.70;;
13493;SDS011;6819;50.886;4.332;2023-09-19T02:02:16;11.82;;;2.17;;
13493;SDS011;6819;50.886;4.332;2023-09-19T02:04:43;9.20;;;2.13;;
13493;SDS011;6819;50.886;4.332;2023-09-19T02:07:09;14.80;;;2.85;;
13493;SDS011;6819;50.886;4.332;2023-09-19T02:09:35;8.85;;;2.42;;
13493;SDS011;6819;50.886;4.332;2023-09-19T02:12:04;11.77;;;2.17;;
13493;SDS011;6819;50.886;4.332;2023-09-19T02:14:30;12.38;;;2.38;;
13493;SDS011;6819;50.886;4.332;2023-09-19T02:16:57;11.93;;;2.08;;
13493;SDS011;6819;50.886;4.332;2023-09-19T02:19:23;10.68;;;2.63;;
13493;SDS011;6819;50.886;4.332;2023-09-19T02:21:49;6.15;;;2.05;;
13493;SDS011;6819;50.886;4.332;2023-09-19T02:24:15;16.98;;;2.42;;
13493;SDS011;6819;50.886;4.332;2023-09-19T02:26:41;25.17;;;2.60;;
13493;SDS011;6819;50.886;4.332;2023-09-19T02:29:07;21.05;;;2.67;;
13493;SDS011;6819;50.886;4.332;2023-09-19T02:31:33;10.95;;;2.13;;
13493;SDS011;6819;50.886;4.332;2023-09-19T02:33:59;14.45;;;2.65;;
13493;SDS011;6819;50.886;4.332;2023-09-19T02:36:25;6.82;;;2.38;;
13493;SDS011;6819;50.886;4.332;2023-09-19T02:38:51;17.88;;;3.25;;
13493;SDS011;6819;50.886;4.332;2023-09-19T02:41:18;10.20;;;1.98;;
13493;SDS011;6819;50.886;4.332;2023-09-19T02:43:44;14.32;;;2.97;;
13493;SDS011;6819;50.886;4.332;2023-09-19T02:46:10;14.05;;;2.33;;
13493;SDS011;6819;50.886;4.332;2023-09-19T02:48:36;13.32;;;2.53;;
13493;SDS011;6819;50.886;4.332;2023-09-19T02:51:03;13.93;;;2.65;;
13493;SDS011;6819;50.886;4.332;2023-09-19T02:53:30;18.17;;;2.58;;
13493;SDS011;6819;50.886;4.332;2023-09-19T02:55:57;12.82;;;2.00;;
13493;SDS011;6819;50.886;4.332;2023-09-19T02:58:23;11.82;;;2.25;;
13493;SDS011;6819;50.886;4.332;2023-09-19T03:00:50;14.10;;;2.38;;
13493;SDS011;6819;50.886;4.332;2023-09-19T03:03:16;10.63;;;2.08;;
13493;SDS011;6819;50.886;4.332;2023-09-19T03:05:42;13.90;;;2.63;;
13493;SDS011;6819;50.886;4.332;2023-09-19T03:08:12;11.55;;;1.98;;
13493;SDS011;6819;50.886;4.332;2023-09-19T03:10:40;10.27;;;2.03;;
13493;SDS011;6819;50.886;4.332;2023-09-19T03:13:06;15.95;;;2.53;;
13493;SDS011;6819;50.886;4.332;2023-09-19T03:15:34;10.25;;;1.80;;
13493;SDS011;6819;50.886;4.332;2023-09-19T03:18:03;10.73;;;2.22;;
13493;SDS011;6819;50.886;4.332;2023-09-19T03:20:30;14.95;;;2.65;;
13493;SDS011;6819;50.886;4.332;2023-09-19T03:22:56;10.05;;;2.15;;
13493;SDS011;6819;50.886;4.332;2023-09-19T03:25:22;10.70;;;2.67;;
13493;SDS011;6819;50.886;4.332;2023-09-19T03:27:49;10.10;;;2.53;;
13493;SDS011;6819;50.886;4.332;2023-09-19T03:30:15;12.63;;;2.17;;
13493;SDS011;6819;50.886;4.332;2023-09-19T03:32:47;12.65;;;2.13;;
13493;SDS011;6819;50.886;4.332;2023-09-19T03:35:15;11.27;;;2.25;;
13493;SDS011;6819;50.886;4.332;2023-09-19T03:37:41;11.23;;;2.38;;
13493;SDS011;6819;50.886;4.332;2023-09-19T03:40:08;11.27;;;2.80;;
13493;SDS011;6819;50.886;4.332;2023-09-19T03:42:37;6.25;;;1.95;;
13493;SDS011;6819;50.886;4.332;2023-09-19T03:45:03;12.90;;;2.60;;
13493;SDS011;6819;50.886;4.332;2023-09-19T03:47:30;14.48;;;2.83;;
13493;SDS011;6819;50.886;4.332;2023-09-19T03:49:56;12.80;;;2.13;;
13493;SDS011;6819;50.886;4.332;2023-09-19T03:52:22;12.15;;;2.35;;
13493;SDS011;6819;50.886;4.332;2023-09-19T03:54:50;14.18;;;2.88;;
13493;SDS011;6819;50.886;4.332;2023-09-19T03:57:16;8.38;;;1.75;;
13493;SDS011;6819;50.886;4.332;2023-09-19T03:59:45;11.32;;;1.95;;
13493;SDS011;6819;50.886;4.332;2023-09-19T04:02:12;11.13;;;2.28;;
13493;SDS011;6819;50.886;4.332;2023-09-19T04:04:47;11.57;;;2.45;;
13493;SDS011;6819;50.886;4.332;2023-09-19T04:07:13;11.52;;;2.30;;
13493;SDS011;6819;50.886;4.332;2023-09-19T04:09:39;8.45;;;2.38;;
13493;SDS011;6819;50.886;4.332;2023-09-19T04:12:05;15.18;;;2.22;;
13493;SDS011;6819;50.886;4.332;2023-09-19T04:14:31;14.13;;;2.80;;
13493;SDS011;6819;50.886;4.332;2023-09-19T04:16:57;13.80;;;2.45;;
13493;SDS011;6819;50.886;4.332;2023-09-19T04:19:23;13.02;;;2.38;;
13493;SDS011;6819;50.886;4.332;2023-09-19T04:21:49;11.40;;;2.28;;
13493;SDS011;6819;50.886;4.332;2023-09-19T04:24:15;17.02;;;2.45;;
13493;SDS011;6819;50.886;4.332;2023-09-19T04:26:44;12.07;;;2.92;;
13493;SDS011;6819;50.886;4.332;2023-09-19T04:29:10;15.75;;;2.63;;
13493;SDS011;6819;50.886;4.332;2023-09-19T04:31:37;18.63;;;3.63;;
13493;SDS011;6819;50.886;4.332;2023-09-19T04:34:08;8.32;;;2.15;;
13493;SDS011;6819;50.886;4.332;2023-09-19T04:36:35;9.25;;;2.15;;
13493;SDS011;6819;50.886;4.332;2023-09-19T04:39:02;7.63;;;2.33;;
13493;SDS011;6819;50.886;4.332;2023-09-19T04:41:30;12.13;;;2.47;;
13493;SDS011;6819;50.886;4.332;2023-09-19T04:43:56;7.63;;;1.83;;
13493;SDS011;6819;50.886;4.332;2023-09-19T04:46:23;15.30;;;2.42;;
13493;SDS011;6819;50.886;4.332;2023-09-19T04:48:49;10.57;;;2.00;;
13493;SDS011;6819;50.886;4.332;2023-09-19T04:51:15;10.75;;;2.28;;
13493;SDS011;6819;50.886;4.332;2023-09-19T04:53:41;10.68;;;2.08;;
13493;SDS011;6819;50.886;4.332;2023-09-19T04:56:08;11.27;;;2.10;;
13493;SDS011;6819;50.886;4.332;2023-09-19T04:58:34;13.80;;;2.70;;
13493;SDS011;6819;50.886;4.332;2023-09-19T05:01:00;11.27;;;1.90;;
13493;SDS011;6819;50.886;4.332;2023-09-19T05:03:27;8.32;;;1.92;;
13493;SDS011;6819;50.886;4.332;2023-09-19T05:05:54;13.93;;;2.35;;
13493;SDS011;6819;50.886;4.332;2023-09-19T05:08:20;20.63;;;2.90;;
13493;SDS011;6819;50.886;4.332;2023-09-19T05:10:47;11.63;;;2.05;;
13493;SDS011;6819;50.886;4.332;2023-09-19T05:13:14;12.73;;;1.90;;
13493;SDS011;6819;50.886;4.332;2023-09-19T05:15:40;10.85;;;1.83;;
13493;SDS011;6819;50.886;4.332;2023-09-19T05:18:06;9.77;;;2.45;;
13493;SDS011;6819;50.886;4.332;2023-09-19T05:20:32;12.20;;;2.33;;
13493;SDS011;6819;50.886;4.332;2023-09-19T05:23:00;11.90;;;2.65;;
13493;SDS011;6819;50.886;4.332;2023-09-19T05:25:28;12.20;;;2.30;;
13493;SDS011;6819;50.886;4.332;2023-09-19T05:27:55;13.50;;;2.25;;
13493;SDS011;6819;50.886;4.332;2023-09-19T05:30:22;11.30;;;2.17;;
13493;SDS011;6819;50.886;4.332;2023-09-19T05:32:48;13.55;;;2.60;;
13493;SDS011;6819;50.886;4.332;2023-09-19T05:35:15;13.60;;;2.80;;
13493;SDS011;6819;50.886;4.332;2023-09-19T05:37:41;13.45;;;2.35;;
13493;SDS011;6819;50.886;4.332;2023-09-19T05:40:07;10.50;;;2.22;;
13493;SDS011;6819;50.886;4.332;2023-09-19T05:42:37;8.05;;;2.00;;
13493;SDS011;6819;50.886;4.332;2023-09-19T05:45:04;13.98;;;2.95;;
13493;SDS011;6819;50.886;4.332;2023-09-19T05:47:31;18.55;;;3.17;;
13493;SDS011;6819;50.886;4.332;2023-09-19T05:49:57;12.60;;;2.20;;
13493;SDS011;6819;50.886;4.332;2023-09-19T05:52:24;14.73;;;2.55;;
13493;SDS011;6819;50.886;4.332;2023-09-19T05:54:50;10.73;;;1.92;;
13493;SDS011;6819;50.886;4.332;2023-09-19T05:57:16;9.50;;;2.17;;
13493;SDS011;6819;50.886;4.332;2023-09-19T05:59:42;13.07;;;2.42;;
13493;SDS011;6819;50.886;4.332;2023-09-19T06:02:08;10.43;;;1.98;;
13493;SDS011;6819;50.886;4.332;2023-09-19T06:04:36;10.57;;;2.53;;
13493;SDS011;6819;50.886;4.332;2023-09-19T06:07:05;14.23;;;2.25;;
13493;SDS011;6819;50.886;4.332;2023-09-19T06:09:31;9.13;;;2.22;;
13493;SDS011;6819;50.886;4.332;2023-09-19T06:11:58;12.52;;;2.25;;
13493;SDS011;6819;50.886;4.332;2023-09-19T06:14:28;17.58;;;2.45;;
13493;SDS011;6819;50.886;4.332;2023-09-19T06:16:55;17.58;;;2.10;;
13493;SDS011;6819;50.886;4.332;2023-09-19T06:19:21;9.20;;;2.13;;
13493;SDS011;6819;50.886;4.332;2023-09-19T06:21:48;20.25;;;3.42;;
13493;SDS011;6819;50.886;4.332;2023-09-19T06:24:14;14.95;;;2.28;;
13493;SDS011;6819;50.886;4.332;2023-09-19T06:26:40;13.63;;;2.08;;
13493;SDS011;6819;50.886;4.332;2023-09-19T06:29:07;9.00;;;2.10;;
13493;SDS011;6819;50.886;4.332;2023-09-19T06:31:33;13.80;;;2.33;;
13493;SDS011;6819;50.886;4.332;2023-09-19T06:33:59;13.57;;;2.00;;
13493;SDS011;6819;50.886;4.332;2023-09-19T06:36:25;15.90;;;2.17;;
13493;SDS011;6819;50.886;4.332;2023-09-19T06:38:51;6.97;;;1.77;;
13493;SDS011;6819;50.886;4.332;2023-09-19T06:41:17;19.98;;;2.60;;
13493;SDS011;6819;50.886;4.332;2023-09-19T06:43:44;12.32;;;1.90;;
13493;SDS011;6819;50.886;4.332;2023-09-19T06:46:10;11.10;;;2.20;;
13493;SDS011;6819;50.886;4.332;2023-09-19T06:48:37;10.32;;;2.50;;
13493;SDS011;6819;50.886;4.332;2023-09-19T06:51:03;16.98;;;2.30;;
13493;SDS011;6819;50.886;4.332;2023-09-19T06:53:33;15.52;;;3.08;;
13493;SDS011;6819;50.886;4.332;2023-09-19T06:56:00;11.75;;;2.38;;
13493;SDS011;6819;50.886;4.332;2023-09-19T06:58:26;13.45;;;2.20;;
13493;SDS011;6819;50.886;4.332;2023-09-19T07:00:52;17.65;;;2.67;;
13493;SDS011;6819;50.886;4.332;2023-09-19T07:03:19;9.15;;;2.05;;
13493;SDS011;6819;50.886;4.332;2023-09-19T07:05:47;10.15;;;2.90;;
13493;SDS011;6819;50.886;4.332;2023-09-19T07:08:13;11.02;;;2.13;;
13493;SDS011;6819;50.886;4.332;2023-09-19T07:10:40;14.23;;;2.90;;
13493;SDS011;6819;50.886;4.332;2023-09-19T07:13:07;13.63;;;2.15;;
13493;SDS011;6819;50.886;4.332;2023-09-19T07:15:37;11.70;;;2.22;;
13493;SDS011;6819;50.886;4.332;2023-09-19T07:18:11;12.73;;;2.65;;
13493;SDS011;6819;50.886;4.332;2023-09-19T07:20:37;18.70;;;2.30;;
13493;SDS011;6819;50.886;4.332;2023-09-19T07:23:03;19.42;;;2.40;;
13493;SDS011;6819;50.886;4.332;2023-09-19T07:25:31;10.55;;;2.15;;
13493;SDS011;6819;50.886;4.332;2023-09-19T07:27:57;12.38;;;2.30;;
13493;SDS011;6819;50.886;4.332;2023-09-19T07:30:25;10.32;;;2.38;;
13493;SDS011;6819;50.886;4.332;2023-09-19T07:32:51;10.25;;;2.17;;
13493;SDS011;6819;50.886;4.332;2023-09-19T07:35:17;12.00;;;1.90;;
13493;SDS011;6819;50.886;4.332;2023-09-19T07:37:45;10.05;;;1.95;;
13493;SDS011;6819;50.886;4.332;2023-09-19T07:40:15;15.43;;;2.60;;
13493;SDS011;6819;50.886;4.332;2023-09-19T07:42:41;13.55;;;2.80;;
13493;SDS011;6819;50.886;4.332;2023-09-19T07:45:09;10.70;;;2.45;;
13493;SDS011;6819;50.886;4.332;2023-09-19T07:47:39;12.45;;;2.40;;
13493;SDS011;6819;50.886;4.332;2023-09-19T07:50:05;17.17;;;3.03;;
13493;SDS011;6819;50.886;4.332;2023-09-19T07:52:32;8.80;;;2.30;;
13493;SDS011;6819;50.886;4.332;2023-09-19T07:54:58;16.73;;;2.22;;
13493;SDS011;6819;50.886;4.332;2023-09-19T07:57:26;11.70;;;2.28;;
13493;SDS011;6819;50.886;4.332;2023-09-19T07:59:54;12.25;;;2.90;;
13493;SDS011;6819;50.886;4.332;2023-09-19T08:02:20;15.05;;;2.53;;
13493;SDS011;6819;50.886;4.332;2023-09-19T08:04:47;9.57;;;1.90;;
13493;SDS011;6819;50.886;4.332;2023-09-19T08:07:14;16.80;;;2.33;;
13493;SDS011;6819;50.886;4.332;2023-09-19T08:09:40;11.88;;;2.25;;
13493;SDS011;6819;50.886;4.332;2023-09-19T08:12:06;8.80;;;2.08;;
13493;SDS011;6819;50.886;4.332;2023-09-19T08:14:36;13.65;;;2.10;;
13493;SDS011;6819;50.886;4.332;2023-09-19T08:17:03;10.18;;;2.30;;
13493;SDS011;6819;50.886;4.332;2023-09-19T08:19:30;9.88;;;2.28;;
13493;SDS011;6819;50.886;4.332;2023-09-19T08:21:59;14.30;;;2.30;;
13493;SDS011;6819;50.886;4.332;2023-09-19T08:24:28;18.42;;;2.35;;
13493;SDS011;6819;50.886;4.332;2023-09-19T08:26:55;15.38;;;2.30;;
13493;SDS011;6819;50.886;4.332;2023-09-19T08:29:22;17.50;;;2.67;;
13493;SDS011;6819;50.886;4.332;2023-09-19T08:31:54;18.75;;;2.80;;
13493;SDS011;6819;50.886;4.332;2023-09-19T08:34:20;11.60;;;2.33;;
13493;SDS011;6819;50.886;4.332;2023-09-19T08:36:46;8.57;;;2.53;;
13493;SDS011;6819;50.886;4.332;2023-09-19T08:39:13;11.85;;;2.67;;
13493;SDS011;6819;50.886;4.332;2023-09-19T08:41:39;11.10;;;2.22;;
13493;SDS011;6819;50.886;4.332;2023-09-19T08:44:05;11.25;;;2.38;;
13493;SDS011;6819;50.886;4.332;2023-09-19T08:46:31;11.35;;;2.20;;
13493;SDS011;6819;50.886;4.332;2023-09-19T08:51:27;13.18;;;2.33;;
13493;SDS011;6819;50.886;4.332;2023-09-19T08:56:32;12.15;;;2.30;;
13493;SDS011;6819;50.886;4.332;2023-09-19T08:59:02;9.02;;;2.08;;
13493;SDS011;6819;50.886;4.332;2023-09-19T09:01:37;8.57;;;2.33;;
13493;SDS011;6819;50.886;4.332;2023-09-19T09:04:07;9.98;;;2.22;;
13493;SDS011;6819;50.886;4.332;2023-09-19T09:06:34;10.13;;;2.70;;
13493;SDS011;6819;50.886;4.332;2023-09-19T09:09:01;8.10;;;1.98;;
13493;SDS011;6819;50.886;4.332;2023-09-19T09:11:28;16.45;;;2.28;;
13493;SDS011;6819;50.886;4.332;2023-09-19T09:13:54;10.40;;;2.15;;
13493;SDS011;6819;50.886;4.332;2023-09-19T09:16:21;12.13;;;2.22;;
13493;SDS011;6819;50.886;4.332;2023-09-19T09:18:51;12.05;;;2.13;;
13493;SDS011;6819;50.886;4.332;2023-09-19T09:21:19;11.82;;;2.03;;
13493;SDS011;6819;50.886;4.332;2023-09-19T09:23:46;7.60;;;1.70;;
13493;SDS011;6819;50.886;4.332;2023-09-19T09:26:12;7.57;;;1.88;;
13493;SDS011;6819;50.886;4.332;2023-09-19T09:28:45;11.18;;;1.80;;
13493;SDS011;6819;50.886;4.332;2023-09-19T09:31:22;6.68;;;2.22;;
13493;SDS011;6819;50.886;4.332;2023-09-19T09:33:53;11.73;;;2.45;;
13493;SDS011;6819;50.886;4.332;2023-09-19T09:36:33;12.48;;;2.65;;
13493;SDS011;6819;50.886;4.332;2023-09-19T09:38:59;8.25;;;2.30;;
13493;SDS011;6819;50.886;4.332;2023-09-19T09:41:40;6.32;;;2.00;;
13493;SDS011;6819;50.886;4.332;2023-09-19T09:44:13;9.23;;;1.98;;
13493;SDS011;6819;50.886;4.332;2023-09-19T09:46:48;14.80;;;1.98;;
13493;SDS011;6819;50.886;4.332;2023-09-19T09:49:21;9.02;;;2.10;;
13493;SDS011;6819;50.886;4.332;2023-09-19T09:52:03;8.73;;;1.70;;
13493;SDS011;6819;50.886;4.332;2023-09-19T09:54:41;6.72;;;1.58;;
13493;SDS011;6819;50.886;4.332;2023-09-19T09:57:23;5.40;;;1.48;;
13493;SDS011;6819;50.886;4.332;2023-09-19T09:59:54;9.60;;;2.00;;
13493;SDS011;6819;50.886;4.332;2023-09-19T10:02:26;12.52;;;1.90;;
13493;SDS011;6819;50.886;4.332;2023-09-19T10:04:58;7.32;;;1.60;;
13493;SDS011;6819;50.886;4.332;2023-09-19T10:07:38;10.90;;;1.92;;
13493;SDS011;6819;50.886;4.332;2023-09-19T10:10:07;9.65;;;2.05;;
13493;SDS011;6819;50.886;4.332;2023-09-19T10:12:53;8.85;;;1.70;;
13493;SDS011;6819;50.886;4.332;2023-09-19T10:15:21;14.77;;;2.10;;
13493;SDS011;6819;50.886;4.332;2023-09-19T10:17:49;7.22;;;1.73;;
13493;SDS011;6819;50.886;4.332;2023-09-19T10:20:23;8.50;;;1.80;;
13493;SDS011;6819;50.886;4.332;2023-09-19T10:23:09;6.30;;;1.50;;
13493;SDS011;6819;50.886;4.332;2023-09-19T10:25:39;7.90;;;1.65;;
13493;SDS011;6819;50.886;4.332;2023-09-19T10:28:06;9.25;;;1.95;;
13493;SDS011;6819;50.886;4.332;2023-09-19T10:30:45;11.68;;;1.90;;
13493;SDS011;6819;50.886;4.332;2023-09-19T10:33:12;8.05;;;1.65;;
13493;SDS011;6819;50.886;4.332;2023-09-19T10:35:40;8.02;;;1.42;;
13493;SDS011;6819;50.886;4.332;2023-09-19T10:38:07;12.93;;;2.50;;
13493;SDS011;6819;50.886;4.332;2023-09-19T10:40:35;4.25;;;1.30;;
13493;SDS011;6819;50.886;4.332;2023-09-19T10:43:05;6.20;;;2.10;;
13493;SDS011;6819;50.886;4.332;2023-09-19T10:45:34;9.05;;;1.48;;
13493;SDS011;6819;50.886;4.332;2023-09-19T10:48:04;4.90;;;1.15;;
13493;SDS011;6819;50.886;4.332;2023-09-19T10:50:33;8.63;;;1.60;;
13493;SDS011;6819;50.886;4.332;2023-09-19T10:53:02;6.18;;;1.50;;
13493;SDS011;6819;50.886;4.332;2023-09-19T10:55:30;5.25;;;1.67;;
13493;SDS011;6819;50.886;4.332;2023-09-19T10:57:57;3.33;;;1.50;;
13493;SDS011;6819;50.886;4.332;2023-09-19T11:00:25;12.18;;;1.40;;
13493;SDS011;6819;50.886;4.332;2023-09-19T11:05:36;4.38;;;1.40;;
13493;SDS011;6819;50.886;4.332;2023-09-19T11:08:06;3.33;;;1.70;;
13493;SDS011;6819;50.886;4.332;2023-09-19T11:10:45;6.25;;;1.70;;
13493;SDS011;6819;50.886;4.332;2023-09-19T11:13:28;4.22;;;1.40;;
13493;SDS011;6819;50.886;4.332;2023-09-19T11:27:10;6.45;;;1.27;;
13493;SDS011;6819;50.886;4.332;2023-09-19T11:29:39;3.92;;;1.25;;
13493;SDS011;6819;50.886;4.332;2023-09-19T11:32:05;7.78;;;1.42;;
13493;SDS011;6819;50.886;4.332;2023-09-19T11:44:52;3.92;;;1.48;;
13493;SDS011;6819;50.886;4.332;2023-09-19T11:47:21;7.00;;;1.38;;
13493;SDS011;6819;50.886;4.332;2023-09-19T11:49:50;7.82;;;1.92;;
13493;SDS011;6819;50.886;4.332;2023-09-19T11:52:21;2.85;;;1.30;;
13493;SDS011;6819;50.886;4.332;2023-09-19T11:54:55;8.52;;;2.17;;
13493;SDS011;6819;50.886;4.332;2023-09-19T11:57:22;3.17;;;1.08;;
13493;SDS011;6819;50.886;4.332;2023-09-19T11:59:48;7.47;;;1.48;;
13493;SDS011;6819;50.886;4.332;2023-09-19T12:02:26;6.53;;;1.30;;
13493;SDS011;6819;50.886;4.332;2023-09-19T12:04:59;9.57;;;1.70;;
13493;SDS011;6819;50.886;4.332;2023-09-19T12:07:25;5.43;;;1.40;;
13493;SDS011;6819;50.886;4.332;2023-09-19T12:10:03;8.13;;;1.73;;
13493;SDS011;6819;50.886;4.332;2023-09-19T12:12:29;5.20;;;1.40;;
13493;SDS011;6819;50.886;4.332;2023-09-19T12:14:57;4.07;;;1.45;;
13493;SDS011;6819;50.886;4.332;2023-09-19T12:17:23;3.80;;;1.48;;
13493;SDS011;6819;50.886;4.332;2023-09-19T12:19:50;6.55;;;1.38;;
13493;SDS011;6819;50.886;4.332;2023-09-19T12:22:16;9.20;;;1.60;;
13493;SDS011;6819;50.886;4.332;2023-09-19T12:24:44;7.68;;;1.48;;
13493;SDS011;6819;50.886;4.332;2023-09-19T12:27:11;4.78;;;1.52;;
13493;SDS011;6819;50.886;4.332;2023-09-19T12:29:44;4.47;;;1.45;;
13493;SDS011;6819;50.886;4.332;2023-09-19T12:32:10;4.78;;;1.45;;
13493;SDS011;6819;50.886;4.332;2023-09-19T12:34:36;4.20;;;1.13;;
13493;SDS011;6819;50.886;4.332;2023-09-19T12:39:52;4.38;;;1.20;;
13493;SDS011;6819;50.886;4.332;2023-09-19T12:42:22;5.15;;;1.20;;
13493;SDS011;6819;50.886;4.332;2023-09-19T12:44:50;6.00;;;1.30;;
13493;SDS011;6819;50.886;4.332;2023-09-19T12:47:20;5.78;;;1.60;;
13493;SDS011;6819;50.886;4.332;2023-09-19T12:52:38;5.68;;;1.45;;
13493;SDS011;6819;50.886;4.332;2023-09-19T12:55:04;7.55;;;1.60;;
13493;SDS011;6819;50.886;4.332;2023-09-19T12:57:32;7.13;;;1.65;;
13493;SDS011;6819;50.886;4.332;2023-09-19T13:00:03;6.22;;;1.63;;
13493;SDS011;6819;50.886;4.332;2023-09-19T13:02:35;8.20;;;1.30;;
13493;SDS011;6819;50.886;4.332;2023-09-19T13:05:01;3.17;;;1.13;;
13493;SDS011;6819;50.886;4.332;2023-09-19T13:07:43;4.63;;;1.27;;
13493;SDS011;6819;50.886;4.332;2023-09-19T13:10:12;4.93;;;1.35;;
13493;SDS011;6819;50.886;4.332;2023-09-19T13:12:41;4.22;;;1.30;;
13493;SDS011;6819;50.886;4.332;2023-09-19T13:17:46;3.05;;;1.13;;
13493;SDS011;6819;50.886;4.332;2023-09-19T13:20:24;4.82;;;1.42;;
13493;SDS011;6819;50.886;4.332;2023-09-19T13:22:54;9.52;;;1.35;;
13493;SDS011;6819;50.886;4.332;2023-09-19T13:25:25;7.82;;;1.50;;
13493;SDS011;6819;50.886;4.332;2023-09-19T13:27:53;7.88;;;1.50;;
13493;SDS011;6819;50.886;4.332;2023-09-19T13:30:21;8.88;;;1.20;;
13493;SDS011;6819;50.886;4.332;2023-09-19T13:32:48;10.63;;;1.88;;
13493;SDS011;6819;50.886;4.332;2023-09-19T13:35:14;10.23;;;1.52;;
13493;SDS011;6819;50.886;4.332;2023-09-19T13:37:41;5.68;;;1.27;;
13493;SDS011;6819;50.886;4.332;2023-09-19T13:42:34;8.20;;;1.30;;
13493;SDS011;6819;50.886;4.332;2023-09-19T13:45:01;4.75;;;1.70;;
13493;SDS011;6819;50.886;4.332;2023-09-19T13:47:27;3.65;;;1.20;;
13493;SDS011;6819;50.886;4.332;2023-09-19T13:49:53;4.88;;;1.45;;
13493;SDS011;6819;50.886;4.332;2023-09-19T13:52:20;4.63;;;1.55;;
13493;SDS011;6819;50.886;4.332;2023-09-19T13:54:48;5.90;;;1.73;;
13493;SDS011;6819;50.886;4.332;2023-09-19T13:57:14;4.95;;;1.55;;
13493;SDS011;6819;50.886;4.332;2023-09-19T13:59:40;8.13;;;1.42;;
13493;SDS011;6819;50.886;4.332;2023-09-19T14:02:06;7.13;;;1.65;;
13493;SDS011;6819;50.886;4.332;2023-09-19T14:04:32;3.35;;;1.02;;
13493;SDS011;6819;50.886;4.332;2023-09-19T14:06:59;2.58;;;1.20;;
13493;SDS011;6819;50.886;4.332;2023-09-19T14:09:26;6.63;;;1.55;;
13493;SDS011;6819;50.886;4.332;2023-09-19T14:11:52;4.60;;;1.50;;
13493;SDS011;6819;50.886;4.332;2023-09-19T14:14:18;4.50;;;1.73;;
13493;SDS011;6819;50.886;4.332;2023-09-19T14:16:48;6.68;;;1.50;;
13493;SDS011;6819;50.886;4.332;2023-09-19T14:19:14;10.80;;;1.55;;
13493;SDS011;6819;50.886;4.332;2023-09-19T14:21:41;9.88;;;1.60;;
13493;SDS011;6819;50.886;4.332;2023-09-19T14:24:08;4.32;;;1.50;;
13493;SDS011;6819;50.886;4.332;2023-09-19T14:26:37;5.85;;;1.77;;
13493;SDS011;6819;50.886;4.332;2023-09-19T14:29:03;5.15;;;1.48;;
13493;SDS011;6819;50.886;4.332;2023-09-19T14:31:32;6.72;;;1.92;;
13493;SDS011;6819;50.886;4.332;2023-09-19T14:33:58;6.65;;;1.70;;
13493;SDS011;6819;50.886;4.332;2023-09-19T14:36:24;6.03;;;1.45;;
13493;SDS011;6819;50.886;4.332;2023-09-19T14:38:54;4.22;;;1.35;;
13493;SDS011;6819;50.886;4.332;2023-09-19T14:41:22;8.93;;;1.80;;
13493;SDS011;6819;50.886;4.332;2023-09-19T14:43:50;6.72;;;1.60;;
13493;SDS011;6819;50.886;4.332;2023-09-19T14:46:16;4.65;;;1.70;;
13493;SDS011;6819;50.886;4.332;2023-09-19T14:48:43;6.75;;;1.60;;
13493;SDS011;6819;50.886;4.332;2023-09-19T14:51:12;8.48;;;1.90;;
13493;SDS011;6819;50.886;4.332;2023-09-19T14:53:38;4.28;;;1.30;;
13493;SDS011;6819;50.886;4.332;2023-09-19T14:56:05;5.47;;;1.45;;
13493;SDS011;6819;50.886;4.332;2023-09-19T14:58:32;9.73;;;2.00;;
13493;SDS011;6819;50.886;4.332;2023-09-19T15:01:05;7.30;;;2.05;;
13493;SDS011;6819;50.886;4.332;2023-09-19T15:03:32;5.47;;;1.65;;
13493;SDS011;6819;50.886;4.332;2023-09-19T15:06:05;5.30;;;1.75;;
13493;SDS011;6819;50.886;4.332;2023-09-19T15:08:35;7.22;;;2.00;;
13493;SDS011;6819;50.886;4.332;2023-09-19T15:11:03;8.13;;;1.80;;
13493;SDS011;6819;50.886;4.332;2023-09-19T15:13:30;10.07;;;2.10;;
13493;SDS011;6819;50.886;4.332;2023-09-19T15:16:02;7.57;;;1.80;;
13493;SDS011;6819;50.886;4.332;2023-09-19T15:18:29;6.30;;;1.92;;
13493;SDS011;6819;50.886;4.332;2023-09-19T15:20:56;4.70;;;1.77;;
13493;SDS011;6819;50.886;4.332;2023-09-19T15:23:22;6.55;;;1.80;;
13493;SDS011;6819;50.886;4.332;2023-09-19T15:25:49;5.10;;;1.98;;
13493;SDS011;6819;50.886;4.332;2023-09-19T15:28:15;7.78;;;1.98;;
13493;SDS011;6819;50.886;4.332;2023-09-19T15:30:41;5.93;;;1.77;;
13493;SDS011;6819;50.886;4.332;2023-09-19T15:33:07;5.15;;;1.75;;
13493;SDS011;6819;50.886;4.332;2023-09-19T15:35:33;4.32;;;1.60;;
13493;SDS011;6819;50.886;4.332;2023-09-19T15:38:02;5.75;;;1.80;;
13493;SDS011;6819;50.886;4.332;2023-09-19T15:40:28;5.15;;;1.65;;
13493;SDS011;6819;50.886;4.332;2023-09-19T15:42:54;5.32;;;1.92;;
13493;SDS011;6819;50.886;4.332;2023-09-19T15:45:24;9.80;;;1.83;;
13493;SDS011;6819;50.886;4.332;2023-09-19T15:47:50;3.83;;;1.83;;
13493;SDS011;6819;50.886;4.332;2023-09-19T15:50:17;4.25;;;1.70;;
13493;SDS011;6819;50.886;4.332;2023-09-19T15:52:43;10.57;;;1.95;;
13493;SDS011;6819;50.886;4.332;2023-09-19T15:55:09;8.80;;;1.67;;
13493;SDS011;6819;50.886;4.332;2023-09-19T15:57:36;2.85;;;1.40;;